sensor_id;sensor_type;location;lat;lon;timestamp;P1;durP1;ratioP1;P2;durP2;ratioP2
46745;SDS011;32493;50.514;9.678;2023-05-29T00:00:27;6.47;;;3.33;;
46745;SDS011;32493;50.514;9.678;2023-05-29T00:02:33;8.43;;;4.35;;
46745;SDS011;32493;50.514;9.678;2023-05-29T00:04:40;8.77;;;4.15;;
46745;SDS011;32493;50.514;9.678;2023-05-29T00:06:50;7.93;;;4.43;;
46745;SDS011;32493;50.514;9.678;2023-05-29T00:08:57;6.70;;;4.10;;
46745;SDS011;32493;50.514;9.678;2023-05-29T00:11:03;9.13;;;4.30;;
46745;SDS011;32493;50.514;9.678;2023-05-29T00:13:08;8.15;;;3.95;;
46745;SDS011;32493;50.514;9.678;2023-05-29T00:15:14;7.03;;;3.60;;
46745;SDS011;32493;50.514;9.678;2023-05-29T00:17:19;5.65;;;3.50;;
46745;SDS011;32493;50.514;9.678;2023-05-29T00:19:27;6.15;;;3.78;;
46745;SDS011;32493;50.514;9.678;2023-05-29T00:21:33;6.93;;;3.53;;
46745;SDS011;32493;50.514;9.678;2023-05-29T00:23:41;7.43;;;3.83;;
46745;SDS011;32493;50.514;9.678;2023-05-29T00:25:48;8.18;;;3.72;;
46745;SDS011;32493;50.514;9.678;2023-05-29T00:30:01;6.47;;;4.28;;
46745;SDS011;32493;50.514;9.678;2023-05-29T00:32:08;7.20;;;3.95;;
46745;SDS011;32493;50.514;9.678;2023-05-29T00:34:13;8.20;;;4.32;;
46745;SDS011;32493;50.514;9.678;2023-05-29T00:36:19;9.15;;;4.22;;
46745;SDS011;32493;50.514;9.678;2023-05-29T00:38:26;9.05;;;4.50;;
46745;SDS011;32493;50.514;9.678;2023-05-29T00:40:34;10.07;;;4.70;;
46745;SDS011;32493;50.514;9.678;2023-05-29T00:42:41;10.07;;;5.18;;
46745;SDS011;32493;50.514;9.678;2023-05-29T00:44:47;9.82;;;4.35;;
46745;SDS011;32493;50.514;9.678;2023-05-29T00:46:55;12.88;;;4.75;;
46745;SDS011;32493;50.514;9.678;2023-05-29T00:49:03;10.43;;;4.22;;
46745;SDS011;32493;50.514;9.678;2023-05-29T00:51:10;10.20;;;4.43;;
46745;SDS011;32493;50.514;9.678;2023-05-29T00:53:16;12.43;;;4.80;;
46745;SDS011;32493;50.514;9.678;2023-05-29T00:55:22;8.35;;;4.32;;
46745;SDS011;32493;50.514;9.678;2023-05-29T00:57:32;11.23;;;4.40;;
46745;SDS011;32493;50.514;9.678;2023-05-29T00:59:39;8.85;;;5.03;;
46745;SDS011;32493;50.514;9.678;2023-05-29T01:01:48;12.57;;;5.18;;
46745;SDS011;32493;50.514;9.678;2023-05-29T01:03:56;9.43;;;4.63;;
46745;SDS011;32493;50.514;9.678;2023-05-29T01:06:03;10.32;;;4.90;;
46745;SDS011;32493;50.514;9.678;2023-05-29T01:08:09;9.35;;;5.20;;
46745;SDS011;32493;50.514;9.678;2023-05-29T01:10:15;7.90;;;4.10;;
46745;SDS011;32493;50.514;9.678;2023-05-29T01:12:24;10.38;;;4.80;;
46745;SDS011;32493;50.514;9.678;2023-05-29T01:14:42;11.90;;;4.20;;
46745;SDS011;32493;50.514;9.678;2023-05-29T01:16:54;8.48;;;4.70;;
46745;SDS011;32493;50.514;9.678;2023-05-29T01:19:10;10.02;;;4.75;;
46745;SDS011;32493;50.514;9.678;2023-05-29T01:21:37;12.02;;;5.20;;
46745;SDS011;32493;50.514;9.678;2023-05-29T01:24:02;13.32;;;5.20;;
46745;SDS011;32493;50.514;9.678;2023-05-29T01:26:19;13.73;;;5.35;;
46745;SDS011;32493;50.514;9.678;2023-05-29T01:28:31;11.20;;;5.30;;
46745;SDS011;32493;50.514;9.678;2023-05-29T01:30:42;11.15;;;5.05;;
46745;SDS011;32493;50.514;9.678;2023-05-29T01:32:49;8.35;;;5.28;;
46745;SDS011;32493;50.514;9.678;2023-05-29T01:34:56;9.07;;;4.60;;
46745;SDS011;32493;50.514;9.678;2023-05-29T01:37:02;9.93;;;4.78;;
46745;SDS011;32493;50.514;9.678;2023-05-29T01:39:11;7.80;;;4.00;;
46745;SDS011;32493;50.514;9.678;2023-05-29T01:41:17;9.27;;;4.88;;
46745;SDS011;32493;50.514;9.678;2023-05-29T01:43:23;10.02;;;4.70;;
46745;SDS011;32493;50.514;9.678;2023-05-29T01:45:32;7.82;;;4.82;;
46745;SDS011;32493;50.514;9.678;2023-05-29T01:47:40;10.45;;;4.93;;
46745;SDS011;32493;50.514;9.678;2023-05-29T01:49:47;8.00;;;4.40;;
46745;SDS011;32493;50.514;9.678;2023-05-29T01:51:57;9.02;;;4.65;;
46745;SDS011;32493;50.514;9.678;2023-05-29T01:54:03;11.48;;;4.60;;
46745;SDS011;32493;50.514;9.678;2023-05-29T01:56:10;9.52;;;4.88;;
46745;SDS011;32493;50.514;9.678;2023-05-29T01:58:16;10.73;;;5.10;;
46745;SDS011;32493;50.514;9.678;2023-05-29T02:00:23;9.82;;;4.70;;
46745;SDS011;32493;50.514;9.678;2023-05-29T02:02:31;7.75;;;4.47;;
46745;SDS011;32493;50.514;9.678;2023-05-29T02:04:42;10.95;;;4.20;;
46745;SDS011;32493;50.514;9.678;2023-05-29T02:06:52;7.28;;;4.10;;
46745;SDS011;32493;50.514;9.678;2023-05-29T02:08:57;8.02;;;4.80;;
46745;SDS011;32493;50.514;9.678;2023-05-29T02:11:03;14.32;;;5.38;;
46745;SDS011;32493;50.514;9.678;2023-05-29T02:13:09;9.93;;;4.60;;
46745;SDS011;32493;50.514;9.678;2023-05-29T02:15:15;5.45;;;3.50;;
46745;SDS011;32493;50.514;9.678;2023-05-29T02:17:21;4.22;;;3.20;;
46745;SDS011;32493;50.514;9.678;2023-05-29T02:19:32;5.95;;;3.20;;
46745;SDS011;32493;50.514;9.678;2023-05-29T02:21:39;6.57;;;3.35;;
46745;SDS011;32493;50.514;9.678;2023-05-29T02:23:47;6.25;;;3.58;;
46745;SDS011;32493;50.514;9.678;2023-05-29T02:25:53;10.07;;;4.38;;
46745;SDS011;32493;50.514;9.678;2023-05-29T02:27:58;7.43;;;3.80;;
46745;SDS011;32493;50.514;9.678;2023-05-29T02:30:04;6.13;;;4.10;;
46745;SDS011;32493;50.514;9.678;2023-05-29T02:32:12;8.82;;;4.85;;
46745;SDS011;32493;50.514;9.678;2023-05-29T02:34:20;8.30;;;4.38;;
46745;SDS011;32493;50.514;9.678;2023-05-29T02:36:30;10.57;;;4.45;;
46745;SDS011;32493;50.514;9.678;2023-05-29T02:38:39;7.10;;;4.15;;
46745;SDS011;32493;50.514;9.678;2023-05-29T02:40:44;6.15;;;4.07;;
46745;SDS011;32493;50.514;9.678;2023-05-29T02:42:50;8.68;;;4.50;;
46745;SDS011;32493;50.514;9.678;2023-05-29T02:44:55;11.40;;;5.25;;
46745;SDS011;32493;50.514;9.678;2023-05-29T02:47:01;10.65;;;5.43;;
46745;SDS011;32493;50.514;9.678;2023-05-29T02:49:06;10.27;;;3.97;;
46745;SDS011;32493;50.514;9.678;2023-05-29T02:51:12;10.02;;;4.53;;
46745;SDS011;32493;50.514;9.678;2023-05-29T02:53:20;8.55;;;4.70;;
46745;SDS011;32493;50.514;9.678;2023-05-29T02:55:26;9.18;;;4.35;;
46745;SDS011;32493;50.514;9.678;2023-05-29T02:59:39;7.35;;;4.40;;
46745;SDS011;32493;50.514;9.678;2023-05-29T03:01:48;10.05;;;4.60;;
46745;SDS011;32493;50.514;9.678;2023-05-29T03:03:54;8.88;;;4.65;;
46745;SDS011;32493;50.514;9.678;2023-05-29T03:06:02;9.73;;;4.80;;
46745;SDS011;32493;50.514;9.678;2023-05-29T03:08:14;11.60;;;4.05;;
46745;SDS011;32493;50.514;9.678;2023-05-29T03:10:23;9.75;;;4.80;;
46745;SDS011;32493;50.514;9.678;2023-05-29T03:12:30;9.18;;;4.15;;
46745;SDS011;32493;50.514;9.678;2023-05-29T03:14:37;9.77;;;4.65;;
46745;SDS011;32493;50.514;9.678;2023-05-29T03:16:46;9.52;;;4.47;;
46745;SDS011;32493;50.514;9.678;2023-05-29T03:18:53;8.10;;;4.32;;
46745;SDS011;32493;50.514;9.678;2023-05-29T03:20:59;7.57;;;4.68;;
46745;SDS011;32493;50.514;9.678;2023-05-29T03:23:08;8.05;;;4.28;;
46745;SDS011;32493;50.514;9.678;2023-05-29T03:25:16;5.47;;;3.88;;
46745;SDS011;32493;50.514;9.678;2023-05-29T03:27:25;8.02;;;3.88;;
46745;SDS011;32493;50.514;9.678;2023-05-29T03:29:39;9.55;;;4.10;;
46745;SDS011;32493;50.514;9.678;2023-05-29T03:31:45;8.40;;;4.03;;
46745;SDS011;32493;50.514;9.678;2023-05-29T03:33:58;6.65;;;3.30;;
46745;SDS011;32493;50.514;9.678;2023-05-29T03:36:26;8.55;;;4.38;;
46745;SDS011;32493;50.514;9.678;2023-05-29T03:38:34;9.43;;;4.07;;
46745;SDS011;32493;50.514;9.678;2023-05-29T03:40:40;6.45;;;3.83;;
46745;SDS011;32493;50.514;9.678;2023-05-29T03:42:49;7.22;;;4.30;;
46745;SDS011;32493;50.514;9.678;2023-05-29T03:44:54;8.18;;;4.10;;
46745;SDS011;32493;50.514;9.678;2023-05-29T03:47:00;6.30;;;3.78;;
46745;SDS011;32493;50.514;9.678;2023-05-29T03:49:09;7.35;;;3.65;;
46745;SDS011;32493;50.514;9.678;2023-05-29T03:51:16;8.45;;;3.58;;
46745;SDS011;32493;50.514;9.678;2023-05-29T03:53:23;8.57;;;3.93;;
46745;SDS011;32493;50.514;9.678;2023-05-29T03:55:28;9.45;;;4.20;;
46745;SDS011;32493;50.514;9.678;2023-05-29T03:57:36;11.10;;;4.22;;
46745;SDS011;32493;50.514;9.678;2023-05-29T03:59:46;10.05;;;4.57;;
46745;SDS011;32493;50.514;9.678;2023-05-29T04:01:53;6.57;;;4.20;;
46745;SDS011;32493;50.514;9.678;2023-05-29T04:03:59;6.55;;;3.70;;
46745;SDS011;32493;50.514;9.678;2023-05-29T04:06:06;7.32;;;3.55;;
46745;SDS011;32493;50.514;9.678;2023-05-29T04:08:12;5.95;;;3.80;;
46745;SDS011;32493;50.514;9.678;2023-05-29T04:10:17;8.15;;;4.57;;
46745;SDS011;32493;50.514;9.678;2023-05-29T04:12:24;7.45;;;4.30;;
46745;SDS011;32493;50.514;9.678;2023-05-29T04:14:29;10.00;;;3.88;;
46745;SDS011;32493;50.514;9.678;2023-05-29T04:16:38;8.65;;;4.32;;
46745;SDS011;32493;50.514;9.678;2023-05-29T04:18:44;10.43;;;4.60;;
46745;SDS011;32493;50.514;9.678;2023-05-29T04:20:50;9.88;;;4.78;;
46745;SDS011;32493;50.514;9.678;2023-05-29T04:22:56;7.85;;;4.85;;
46745;SDS011;32493;50.514;9.678;2023-05-29T04:25:02;9.48;;;5.28;;
46745;SDS011;32493;50.514;9.678;2023-05-29T04:27:10;10.73;;;4.90;;
46745;SDS011;32493;50.514;9.678;2023-05-29T04:29:17;8.25;;;4.30;;
46745;SDS011;32493;50.514;9.678;2023-05-29T04:31:24;6.72;;;4.53;;
46745;SDS011;32493;50.514;9.678;2023-05-29T04:33:34;9.07;;;4.80;;
46745;SDS011;32493;50.514;9.678;2023-05-29T04:35:40;8.60;;;4.35;;
46745;SDS011;32493;50.514;9.678;2023-05-29T04:37:47;9.63;;;5.05;;
46745;SDS011;32493;50.514;9.678;2023-05-29T04:39:55;10.55;;;4.63;;
46745;SDS011;32493;50.514;9.678;2023-05-29T04:42:03;7.95;;;5.05;;
46745;SDS011;32493;50.514;9.678;2023-05-29T04:44:12;7.65;;;4.18;;
46745;SDS011;32493;50.514;9.678;2023-05-29T04:46:23;10.35;;;4.35;;
46745;SDS011;32493;50.514;9.678;2023-05-29T04:48:34;7.47;;;4.38;;
46745;SDS011;32493;50.514;9.678;2023-05-29T04:50:43;11.35;;;4.70;;
46745;SDS011;32493;50.514;9.678;2023-05-29T04:52:50;11.18;;;5.47;;
46745;SDS011;32493;50.514;9.678;2023-05-29T04:54:57;10.35;;;5.13;;
46745;SDS011;32493;50.514;9.678;2023-05-29T04:57:03;11.10;;;4.82;;
46745;SDS011;32493;50.514;9.678;2023-05-29T04:59:10;11.02;;;5.10;;
46745;SDS011;32493;50.514;9.678;2023-05-29T05:01:16;9.50;;;4.82;;
46745;SDS011;32493;50.514;9.678;2023-05-29T05:03:21;8.50;;;4.32;;
46745;SDS011;32493;50.514;9.678;2023-05-29T05:05:33;11.57;;;4.65;;
46745;SDS011;32493;50.514;9.678;2023-05-29T05:07:41;9.55;;;5.15;;
46745;SDS011;32493;50.514;9.678;2023-05-29T05:09:47;8.10;;;4.90;;
46745;SDS011;32493;50.514;9.678;2023-05-29T05:12:00;8.90;;;4.60;;
46745;SDS011;32493;50.514;9.678;2023-05-29T05:14:07;9.52;;;5.18;;
46745;SDS011;32493;50.514;9.678;2023-05-29T05:16:14;8.35;;;4.53;;
46745;SDS011;32493;50.514;9.678;2023-05-29T05:18:22;8.88;;;4.65;;
46745;SDS011;32493;50.514;9.678;2023-05-29T05:20:38;10.85;;;5.35;;
46745;SDS011;32493;50.514;9.678;2023-05-29T05:22:43;8.77;;;5.47;;
46745;SDS011;32493;50.514;9.678;2023-05-29T05:24:49;9.30;;;5.00;;
46745;SDS011;32493;50.514;9.678;2023-05-29T05:26:58;7.57;;;4.35;;
46745;SDS011;32493;50.514;9.678;2023-05-29T05:29:04;7.15;;;4.35;;
46745;SDS011;32493;50.514;9.678;2023-05-29T05:31:13;9.43;;;4.45;;
46745;SDS011;32493;50.514;9.678;2023-05-29T05:33:20;10.07;;;4.95;;
46745;SDS011;32493;50.514;9.678;2023-05-29T05:35:27;8.98;;;4.90;;
46745;SDS011;32493;50.514;9.678;2023-05-29T05:37:36;10.88;;;5.18;;
46745;SDS011;32493;50.514;9.678;2023-05-29T05:39:41;10.85;;;5.82;;
46745;SDS011;32493;50.514;9.678;2023-05-29T05:41:48;12.38;;;5.50;;
46745;SDS011;32493;50.514;9.678;2023-05-29T05:44:17;8.50;;;4.32;;
46745;SDS011;32493;50.514;9.678;2023-05-29T05:46:28;11.25;;;4.80;;
46745;SDS011;32493;50.514;9.678;2023-05-29T05:48:34;8.88;;;4.93;;
46745;SDS011;32493;50.514;9.678;2023-05-29T05:50:40;8.48;;;4.50;;
46745;SDS011;32493;50.514;9.678;2023-05-29T05:52:48;9.43;;;4.65;;
46745;SDS011;32493;50.514;9.678;2023-05-29T05:54:54;10.98;;;4.57;;
46745;SDS011;32493;50.514;9.678;2023-05-29T05:57:00;9.30;;;4.80;;
46745;SDS011;32493;50.514;9.678;2023-05-29T05:59:07;9.65;;;4.55;;
46745;SDS011;32493;50.514;9.678;2023-05-29T06:01:12;11.55;;;5.57;;
46745;SDS011;32493;50.514;9.678;2023-05-29T06:03:18;13.65;;;4.70;;
46745;SDS011;32493;50.514;9.678;2023-05-29T06:05:31;9.57;;;4.57;;
46745;SDS011;32493;50.514;9.678;2023-05-29T06:07:41;9.73;;;4.40;;
46745;SDS011;32493;50.514;9.678;2023-05-29T06:09:49;11.50;;;4.55;;
46745;SDS011;32493;50.514;9.678;2023-05-29T06:11:55;8.95;;;4.72;;
46745;SDS011;32493;50.514;9.678;2023-05-29T06:14:02;11.18;;;4.22;;
46745;SDS011;32493;50.514;9.678;2023-05-29T06:16:08;12.85;;;5.43;;
46745;SDS011;32493;50.514;9.678;2023-05-29T06:18:15;10.02;;;4.85;;
46745;SDS011;32493;50.514;9.678;2023-05-29T06:20:22;10.90;;;4.47;;
46745;SDS011;32493;50.514;9.678;2023-05-29T06:22:29;9.50;;;4.03;;
46745;SDS011;32493;50.514;9.678;2023-05-29T06:24:35;8.38;;;4.43;;
46745;SDS011;32493;50.514;9.678;2023-05-29T06:26:44;8.48;;;4.22;;
46745;SDS011;32493;50.514;9.678;2023-05-29T06:28:52;12.65;;;4.70;;
46745;SDS011;32493;50.514;9.678;2023-05-29T06:30:58;12.25;;;4.55;;
46745;SDS011;32493;50.514;9.678;2023-05-29T06:33:05;15.57;;;5.20;;
46745;SDS011;32493;50.514;9.678;2023-05-29T06:37:20;10.82;;;4.05;;
46745;SDS011;32493;50.514;9.678;2023-05-29T06:39:25;9.30;;;4.10;;
46745;SDS011;32493;50.514;9.678;2023-05-29T06:41:32;8.27;;;3.72;;
46745;SDS011;32493;50.514;9.678;2023-05-29T06:43:40;9.75;;;4.45;;
46745;SDS011;32493;50.514;9.678;2023-05-29T06:45:48;7.32;;;4.05;;
46745;SDS011;32493;50.514;9.678;2023-05-29T06:47:55;12.37;;;4.40;;
46745;SDS011;32493;50.514;9.678;2023-05-29T06:50:01;10.57;;;4.10;;
46745;SDS011;32493;50.514;9.678;2023-05-29T06:52:07;7.90;;;4.20;;
46745;SDS011;32493;50.514;9.678;2023-05-29T06:54:41;7.88;;;3.70;;
46745;SDS011;32493;50.514;9.678;2023-05-29T06:56:47;5.93;;;3.83;;
46745;SDS011;32493;50.514;9.678;2023-05-29T06:59:15;9.30;;;4.20;;
46745;SDS011;32493;50.514;9.678;2023-05-29T07:01:21;9.73;;;4.15;;
46745;SDS011;32493;50.514;9.678;2023-05-29T07:03:34;9.75;;;4.32;;
46745;SDS011;32493;50.514;9.678;2023-05-29T07:05:40;8.60;;;4.07;;
46745;SDS011;32493;50.514;9.678;2023-05-29T07:07:46;12.27;;;4.30;;
46745;SDS011;32493;50.514;9.678;2023-05-29T07:09:52;6.05;;;3.42;;
46745;SDS011;32493;50.514;9.678;2023-05-29T07:11:57;12.50;;;3.90;;
46745;SDS011;32493;50.514;9.678;2023-05-29T07:14:04;10.63;;;4.35;;
46745;SDS011;32493;50.514;9.678;2023-05-29T07:16:15;7.93;;;3.73;;
46745;SDS011;32493;50.514;9.678;2023-05-29T07:18:31;8.60;;;4.13;;
46745;SDS011;32493;50.514;9.678;2023-05-29T07:20:37;10.30;;;3.65;;
46745;SDS011;32493;50.514;9.678;2023-05-29T07:22:47;10.48;;;4.00;;
46745;SDS011;32493;50.514;9.678;2023-05-29T07:24:53;10.50;;;4.22;;
46745;SDS011;32493;50.514;9.678;2023-05-29T07:26:58;10.55;;;4.97;;
46745;SDS011;32493;50.514;9.678;2023-05-29T07:29:09;11.70;;;4.35;;
46745;SDS011;32493;50.514;9.678;2023-05-29T07:31:19;13.52;;;4.85;;
46745;SDS011;32493;50.514;9.678;2023-05-29T07:33:26;9.50;;;3.78;;
46745;SDS011;32493;50.514;9.678;2023-05-29T07:35:32;8.77;;;4.07;;
46745;SDS011;32493;50.514;9.678;2023-05-29T07:37:38;10.67;;;4.20;;
46745;SDS011;32493;50.514;9.678;2023-05-29T07:39:48;10.35;;;3.65;;
46745;SDS011;32493;50.514;9.678;2023-05-29T07:42:19;9.27;;;3.80;;
46745;SDS011;32493;50.514;9.678;2023-05-29T07:44:25;6.47;;;3.42;;
46745;SDS011;32493;50.514;9.678;2023-05-29T07:46:34;9.07;;;3.70;;
46745;SDS011;32493;50.514;9.678;2023-05-29T07:49:01;8.30;;;3.80;;
46745;SDS011;32493;50.514;9.678;2023-05-29T07:51:08;8.00;;;4.22;;
46745;SDS011;32493;50.514;9.678;2023-05-29T07:53:18;7.60;;;3.70;;
46745;SDS011;32493;50.514;9.678;2023-05-29T07:55:24;12.13;;;4.15;;
46745;SDS011;32493;50.514;9.678;2023-05-29T07:57:31;7.20;;;3.40;;
46745;SDS011;32493;50.514;9.678;2023-05-29T07:59:37;7.67;;;3.77;;
46745;SDS011;32493;50.514;9.678;2023-05-29T08:01:51;14.48;;;3.72;;
46745;SDS011;32493;50.514;9.678;2023-05-29T08:04:17;7.88;;;3.80;;
46745;SDS011;32493;50.514;9.678;2023-05-29T08:06:24;9.63;;;3.60;;
46745;SDS011;32493;50.514;9.678;2023-05-29T08:08:32;9.75;;;3.85;;
46745;SDS011;32493;50.514;9.678;2023-05-29T08:10:37;9.82;;;3.55;;
46745;SDS011;32493;50.514;9.678;2023-05-29T08:12:43;11.40;;;3.58;;
46745;SDS011;32493;50.514;9.678;2023-05-29T08:14:51;7.32;;;3.47;;
46745;SDS011;32493;50.514;9.678;2023-05-29T08:17:00;8.90;;;4.13;;
46745;SDS011;32493;50.514;9.678;2023-05-29T08:19:07;7.72;;;3.65;;
46745;SDS011;32493;50.514;9.678;2023-05-29T08:21:12;7.80;;;3.33;;
46745;SDS011;32493;50.514;9.678;2023-05-29T08:23:18;7.93;;;3.72;;
46745;SDS011;32493;50.514;9.678;2023-05-29T08:25:24;7.22;;;3.25;;
46745;SDS011;32493;50.514;9.678;2023-05-29T08:27:31;8.67;;;3.57;;
46745;SDS011;32493;50.514;9.678;2023-05-29T08:29:38;8.68;;;4.00;;
46745;SDS011;32493;50.514;9.678;2023-05-29T08:31:44;7.65;;;3.67;;
46745;SDS011;32493;50.514;9.678;2023-05-29T08:33:52;6.43;;;3.28;;
46745;SDS011;32493;50.514;9.678;2023-05-29T08:35:59;9.18;;;3.50;;
46745;SDS011;32493;50.514;9.678;2023-05-29T08:38:07;10.07;;;4.05;;
46745;SDS011;32493;50.514;9.678;2023-05-29T08:40:13;5.95;;;3.35;;
46745;SDS011;32493;50.514;9.678;2023-05-29T08:42:20;9.23;;;3.47;;
46745;SDS011;32493;50.514;9.678;2023-05-29T08:44:36;9.38;;;4.22;;
46745;SDS011;32493;50.514;9.678;2023-05-29T08:46:48;11.35;;;3.60;;
46745;SDS011;32493;50.514;9.678;2023-05-29T08:49:02;8.27;;;3.92;;
46745;SDS011;32493;50.514;9.678;2023-05-29T08:51:10;9.32;;;3.83;;
46745;SDS011;32493;50.514;9.678;2023-05-29T08:53:18;11.68;;;4.05;;
46745;SDS011;32493;50.514;9.678;2023-05-29T08:55:26;8.52;;;3.70;;
46745;SDS011;32493;50.514;9.678;2023-05-29T08:59:42;7.75;;;3.60;;
46745;SDS011;32493;50.514;9.678;2023-05-29T09:01:50;7.97;;;4.10;;
46745;SDS011;32493;50.514;9.678;2023-05-29T09:03:58;8.88;;;3.95;;
46745;SDS011;32493;50.514;9.678;2023-05-29T09:06:07;8.32;;;4.00;;
46745;SDS011;32493;50.514;9.678;2023-05-29T09:08:13;6.53;;;3.38;;
46745;SDS011;32493;50.514;9.678;2023-05-29T09:10:19;9.50;;;3.97;;
46745;SDS011;32493;50.514;9.678;2023-05-29T09:14:33;7.22;;;3.42;;
46745;SDS011;32493;50.514;9.678;2023-05-29T09:16:41;7.80;;;3.78;;
46745;SDS011;32493;50.514;9.678;2023-05-29T09:18:47;9.32;;;3.08;;
46745;SDS011;32493;50.514;9.678;2023-05-29T09:21:00;7.00;;;3.60;;
46745;SDS011;32493;50.514;9.678;2023-05-29T09:23:13;12.75;;;3.75;;
46745;SDS011;32493;50.514;9.678;2023-05-29T09:25:20;10.20;;;4.03;;
46745;SDS011;32493;50.514;9.678;2023-05-29T09:27:28;7.82;;;3.40;;
46745;SDS011;32493;50.514;9.678;2023-05-29T09:29:37;8.55;;;3.35;;
46745;SDS011;32493;50.514;9.678;2023-05-29T09:31:45;10.05;;;3.40;;
46745;SDS011;32493;50.514;9.678;2023-05-29T09:33:51;8.20;;;3.75;;
46745;SDS011;32493;50.514;9.678;2023-05-29T09:36:01;7.78;;;2.78;;
46745;SDS011;32493;50.514;9.678;2023-05-29T09:38:09;8.52;;;3.60;;
46745;SDS011;32493;50.514;9.678;2023-05-29T09:40:38;9.30;;;3.78;;
46745;SDS011;32493;50.514;9.678;2023-05-29T09:42:44;6.22;;;3.30;;
46745;SDS011;32493;50.514;9.678;2023-05-29T09:44:50;8.95;;;3.83;;
46745;SDS011;32493;50.514;9.678;2023-05-29T09:46:58;5.80;;;2.85;;
46745;SDS011;32493;50.514;9.678;2023-05-29T09:49:08;7.28;;;3.72;;
46745;SDS011;32493;50.514;9.678;2023-05-29T09:51:23;6.18;;;2.83;;
46745;SDS011;32493;50.514;9.678;2023-05-29T09:53:31;7.10;;;3.03;;
46745;SDS011;32493;50.514;9.678;2023-05-29T09:55:36;7.03;;;3.50;;
46745;SDS011;32493;50.514;9.678;2023-05-29T09:57:46;7.53;;;3.50;;
46745;SDS011;32493;50.514;9.678;2023-05-29T09:59:53;9.50;;;3.03;;
46745;SDS011;32493;50.514;9.678;2023-05-29T10:02:12;6.10;;;3.03;;
46745;SDS011;32493;50.514;9.678;2023-05-29T10:04:19;5.60;;;3.05;;
46745;SDS011;32493;50.514;9.678;2023-05-29T10:06:28;6.93;;;3.40;;
46745;SDS011;32493;50.514;9.678;2023-05-29T10:08:35;6.68;;;3.25;;
46745;SDS011;32493;50.514;9.678;2023-05-29T10:10:48;13.90;;;3.65;;
46745;SDS011;32493;50.514;9.678;2023-05-29T10:12:59;6.60;;;2.65;;
46745;SDS011;32493;50.514;9.678;2023-05-29T10:15:10;5.82;;;3.05;;
46745;SDS011;32493;50.514;9.678;2023-05-29T10:17:21;7.35;;;3.33;;
46745;SDS011;32493;50.514;9.678;2023-05-29T10:19:35;7.10;;;3.30;;
46745;SDS011;32493;50.514;9.678;2023-05-29T10:21:46;8.52;;;3.03;;
46745;SDS011;32493;50.514;9.678;2023-05-29T10:24:00;6.35;;;3.22;;
46745;SDS011;32493;50.514;9.678;2023-05-29T10:26:11;8.25;;;3.20;;
46745;SDS011;32493;50.514;9.678;2023-05-29T10:28:20;7.25;;;3.22;;
46745;SDS011;32493;50.514;9.678;2023-05-29T10:32:39;5.07;;;2.67;;
46745;SDS011;32493;50.514;9.678;2023-05-29T10:35:00;5.97;;;2.67;;
46745;SDS011;32493;50.514;9.678;2023-05-29T10:37:25;9.45;;;3.63;;
46745;SDS011;32493;50.514;9.678;2023-05-29T10:39:39;6.55;;;2.83;;
46745;SDS011;32493;50.514;9.678;2023-05-29T10:41:45;6.07;;;3.38;;
46745;SDS011;32493;50.514;9.678;2023-05-29T10:43:53;5.70;;;2.72;;
46745;SDS011;32493;50.514;9.678;2023-05-29T10:46:00;6.97;;;2.97;;
46745;SDS011;32493;50.514;9.678;2023-05-29T10:50:46;7.53;;;2.70;;
46745;SDS011;32493;50.514;9.678;2023-05-29T10:52:55;7.65;;;3.17;;
46745;SDS011;32493;50.514;9.678;2023-05-29T10:55:01;7.88;;;3.42;;
46745;SDS011;32493;50.514;9.678;2023-05-29T10:57:11;7.03;;;2.80;;
46745;SDS011;32493;50.514;9.678;2023-05-29T10:59:16;6.85;;;2.80;;
46745;SDS011;32493;50.514;9.678;2023-05-29T11:01:23;7.00;;;2.72;;
46745;SDS011;32493;50.514;9.678;2023-05-29T11:03:31;5.55;;;2.83;;
46745;SDS011;32493;50.514;9.678;2023-05-29T11:05:42;6.63;;;2.78;;
46745;SDS011;32493;50.514;9.678;2023-05-29T11:08:03;7.05;;;3.22;;
46745;SDS011;32493;50.514;9.678;2023-05-29T11:10:12;6.20;;;2.95;;
46745;SDS011;32493;50.514;9.678;2023-05-29T11:12:22;6.90;;;2.75;;
46745;SDS011;32493;50.514;9.678;2023-05-29T11:14:44;6.93;;;2.83;;
46745;SDS011;32493;50.514;9.678;2023-05-29T11:16:53;6.00;;;2.95;;
46745;SDS011;32493;50.514;9.678;2023-05-29T11:19:03;5.82;;;2.80;;
46745;SDS011;32493;50.514;9.678;2023-05-29T11:21:15;5.55;;;2.80;;
46745;SDS011;32493;50.514;9.678;2023-05-29T11:23:36;5.15;;;2.83;;
46745;SDS011;32493;50.514;9.678;2023-05-29T11:25:47;6.40;;;3.25;;
46745;SDS011;32493;50.514;9.678;2023-05-29T11:27:55;4.88;;;3.05;;
46745;SDS011;32493;50.514;9.678;2023-05-29T11:30:03;5.80;;;3.47;;
46745;SDS011;32493;50.514;9.678;2023-05-29T11:32:11;5.05;;;2.92;;
46745;SDS011;32493;50.514;9.678;2023-05-29T11:34:21;5.00;;;3.28;;
46745;SDS011;32493;50.514;9.678;2023-05-29T11:36:30;6.95;;;3.05;;
46745;SDS011;32493;50.514;9.678;2023-05-29T11:38:38;6.75;;;3.00;;
46745;SDS011;32493;50.514;9.678;2023-05-29T11:40:45;5.38;;;2.85;;
46745;SDS011;32493;50.514;9.678;2023-05-29T11:42:52;6.35;;;3.15;;
46745;SDS011;32493;50.514;9.678;2023-05-29T11:45:09;7.57;;;3.25;;
46745;SDS011;32493;50.514;9.678;2023-05-29T11:47:16;4.57;;;2.83;;
46745;SDS011;32493;50.514;9.678;2023-05-29T11:49:27;6.78;;;3.03;;
46745;SDS011;32493;50.514;9.678;2023-05-29T11:51:34;5.20;;;3.00;;
46745;SDS011;32493;50.514;9.678;2023-05-29T11:53:43;5.55;;;2.50;;
46745;SDS011;32493;50.514;9.678;2023-05-29T11:55:52;5.13;;;2.50;;
46745;SDS011;32493;50.514;9.678;2023-05-29T11:58:09;6.43;;;3.00;;
46745;SDS011;32493;50.514;9.678;2023-05-29T12:00:16;4.63;;;3.00;;
46745;SDS011;32493;50.514;9.678;2023-05-29T12:02:24;4.43;;;2.70;;
46745;SDS011;32493;50.514;9.678;2023-05-29T12:04:32;8.68;;;3.22;;
46745;SDS011;32493;50.514;9.678;2023-05-29T12:06:39;6.18;;;2.95;;
46745;SDS011;32493;50.514;9.678;2023-05-29T12:09:01;9.32;;;3.40;;
46745;SDS011;32493;50.514;9.678;2023-05-29T12:11:07;6.57;;;2.97;;
46745;SDS011;32493;50.514;9.678;2023-05-29T12:13:18;4.07;;;2.67;;
46745;SDS011;32493;50.514;9.678;2023-05-29T12:15:28;5.68;;;2.97;;
46745;SDS011;32493;50.514;9.678;2023-05-29T12:17:40;5.53;;;3.08;;
46745;SDS011;32493;50.514;9.678;2023-05-29T12:19:46;7.78;;;4.00;;
46745;SDS011;32493;50.514;9.678;2023-05-29T12:21:52;6.85;;;3.80;;
46745;SDS011;32493;50.514;9.678;2023-05-29T12:24:00;8.05;;;3.20;;
46745;SDS011;32493;50.514;9.678;2023-05-29T12:28:23;5.15;;;2.70;;
46745;SDS011;32493;50.514;9.678;2023-05-29T12:30:29;5.57;;;3.05;;
46745;SDS011;32493;50.514;9.678;2023-05-29T12:32:41;4.70;;;2.90;;
46745;SDS011;32493;50.514;9.678;2023-05-29T12:34:53;6.97;;;2.95;;
46745;SDS011;32493;50.514;9.678;2023-05-29T12:37:03;6.75;;;2.60;;
46745;SDS011;32493;50.514;9.678;2023-05-29T12:39:17;7.10;;;3.45;;
46745;SDS011;32493;50.514;9.678;2023-05-29T12:41:25;6.50;;;2.70;;
46745;SDS011;32493;50.514;9.678;2023-05-29T12:43:32;5.20;;;3.22;;
46745;SDS011;32493;50.514;9.678;2023-05-29T12:45:37;4.25;;;2.40;;
46745;SDS011;32493;50.514;9.678;2023-05-29T12:47:49;6.97;;;2.90;;
46745;SDS011;32493;50.514;9.678;2023-05-29T12:49:56;5.22;;;2.90;;
46745;SDS011;32493;50.514;9.678;2023-05-29T12:52:04;7.53;;;3.30;;
46745;SDS011;32493;50.514;9.678;2023-05-29T12:54:12;5.30;;;2.80;;
46745;SDS011;32493;50.514;9.678;2023-05-29T12:56:24;5.88;;;3.10;;
46745;SDS011;32493;50.514;9.678;2023-05-29T12:58:31;8.32;;;3.25;;
46745;SDS011;32493;50.514;9.678;2023-05-29T13:00:38;6.70;;;3.08;;
46745;SDS011;32493;50.514;9.678;2023-05-29T13:02:45;9.40;;;3.20;;
46745;SDS011;32493;50.514;9.678;2023-05-29T13:07:02;6.18;;;2.63;;
46745;SDS011;32493;50.514;9.678;2023-05-29T13:09:08;4.57;;;2.88;;
46745;SDS011;32493;50.514;9.678;2023-05-29T13:11:14;8.20;;;3.17;;
46745;SDS011;32493;50.514;9.678;2023-05-29T13:13:23;5.05;;;2.75;;